sensor_id;sensor_type;location;lat;lon;timestamp;P1;durP1;ratioP1;P2;durP2;ratioP2
76826;SDS011;65788;52.284;20.890;2023-07-08T00:00:52;6.90;;;3.30;;
76826;SDS011;65788;52.284;20.890;2023-07-08T00:06:09;5.90;;;3.40;;
76826;SDS011;65788;52.284;20.890;2023-07-08T00:08:42;5.70;;;3.60;;
76826;SDS011;65788;52.284;20.890;2023-07-08T00:11:10;9.00;;;3.70;;
76826;SDS011;65788;52.284;20.890;2023-07-08T00:13:38;7.00;;;3.40;;
76826;SDS011;65788;52.284;20.890;2023-07-08T00:16:10;5.90;;;3.70;;
76826;SDS011;65788;52.284;20.890;2023-07-08T00:18:38;6.40;;;3.60;;
76826;SDS011;65788;52.284;20.890;2023-07-08T00:21:09;5.10;;;3.20;;
76826;SDS011;65788;52.284;20.890;2023-07-08T00:23:45;6.00;;;3.80;;
76826;SDS011;65788;52.284;20.890;2023-07-08T00:26:25;5.40;;;3.40;;
76826;SDS011;65788;52.284;20.890;2023-07-08T00:28:54;5.20;;;3.40;;
76826;SDS011;65788;52.284;20.890;2023-07-08T00:31:23;8.10;;;3.80;;
76826;SDS011;65788;52.284;20.890;2023-07-08T00:33:52;6.50;;;3.40;;
76826;SDS011;65788;52.284;20.890;2023-07-08T00:36:24;6.00;;;3.50;;
76826;SDS011;65788;52.284;20.890;2023-07-08T00:38:56;6.00;;;3.70;;
76826;SDS011;65788;52.284;20.890;2023-07-08T00:41:30;6.60;;;3.90;;
76826;SDS011;65788;52.284;20.890;2023-07-08T00:43:59;7.30;;;3.60;;
76826;SDS011;65788;52.284;20.890;2023-07-08T00:51:45;6.10;;;4.10;;
76826;SDS011;65788;52.284;20.890;2023-07-08T00:54:13;7.40;;;4.30;;
76826;SDS011;65788;52.284;20.890;2023-07-08T01:01:49;9.60;;;3.90;;
76826;SDS011;65788;52.284;20.890;2023-07-08T01:05:04;6.80;;;4.20;;
76826;SDS011;65788;52.284;20.890;2023-07-08T01:07:10;7.00;;;4.10;;
76826;SDS011;65788;52.284;20.890;2023-07-08T01:09:43;6.80;;;4.60;;
76826;SDS011;65788;52.284;20.890;2023-07-08T01:12:16;8.00;;;4.50;;
76826;SDS011;65788;52.284;20.890;2023-07-08T01:14:48;5.70;;;3.90;;
76826;SDS011;65788;52.284;20.890;2023-07-08T01:17:20;7.70;;;4.60;;
76826;SDS011;65788;52.284;20.890;2023-07-08T01:19:49;6.80;;;4.40;;
76826;SDS011;65788;52.284;20.890;2023-07-08T01:22:17;9.50;;;4.50;;
76826;SDS011;65788;52.284;20.890;2023-07-08T01:24:44;7.50;;;4.30;;
76826;SDS011;65788;52.284;20.890;2023-07-08T01:27:13;6.60;;;4.50;;
76826;SDS011;65788;52.284;20.890;2023-07-08T01:29:43;6.00;;;4.10;;
76826;SDS011;65788;52.284;20.890;2023-07-08T01:32:14;8.10;;;4.70;;
76826;SDS011;65788;52.284;20.890;2023-07-08T01:34:45;7.90;;;4.60;;
76826;SDS011;65788;52.284;20.890;2023-07-08T01:37:31;8.90;;;5.00;;
76826;SDS011;65788;52.284;20.890;2023-07-08T01:40:13;7.80;;;4.30;;
76826;SDS011;65788;52.284;20.890;2023-07-08T01:42:41;6.60;;;4.10;;
76826;SDS011;65788;52.284;20.890;2023-07-08T01:45:12;6.60;;;4.50;;
76826;SDS011;65788;52.284;20.890;2023-07-08T01:47:42;9.40;;;4.60;;
76826;SDS011;65788;52.284;20.890;2023-07-08T01:50:17;7.60;;;4.40;;
76826;SDS011;65788;52.284;20.890;2023-07-08T01:52:46;7.60;;;4.30;;
76826;SDS011;65788;52.284;20.890;2023-07-08T01:55:15;6.60;;;4.50;;
76826;SDS011;65788;52.284;20.890;2023-07-08T01:57:42;9.60;;;5.30;;
76826;SDS011;65788;52.284;20.890;2023-07-08T02:00:09;6.60;;;4.40;;
76826;SDS011;65788;52.284;20.890;2023-07-08T02:05:06;7.60;;;5.00;;
76826;SDS011;65788;52.284;20.890;2023-07-08T02:07:33;9.20;;;5.10;;
76826;SDS011;65788;52.284;20.890;2023-07-08T02:10:01;7.00;;;4.50;;
76826;SDS011;65788;52.284;20.890;2023-07-08T02:12:29;8.80;;;4.70;;
76826;SDS011;65788;52.284;20.890;2023-07-08T02:14:56;7.20;;;4.60;;
76826;SDS011;65788;52.284;20.890;2023-07-08T02:17:23;7.30;;;4.30;;
76826;SDS011;65788;52.284;20.890;2023-07-08T02:19:52;8.10;;;5.20;;
76826;SDS011;65788;52.284;20.890;2023-07-08T02:22:19;7.00;;;4.20;;
76826;SDS011;65788;52.284;20.890;2023-07-08T02:24:46;7.10;;;4.00;;
76826;SDS011;65788;52.284;20.890;2023-07-08T02:27:12;7.00;;;4.50;;
76826;SDS011;65788;52.284;20.890;2023-07-08T02:29:40;7.00;;;4.50;;
76826;SDS011;65788;52.284;20.890;2023-07-08T02:32:09;6.30;;;4.40;;
76826;SDS011;65788;52.284;20.890;2023-07-08T02:37:04;7.70;;;5.40;;
76826;SDS011;65788;52.284;20.890;2023-07-08T02:39:35;6.90;;;4.80;;
76826;SDS011;65788;52.284;20.890;2023-07-08T02:42:02;8.50;;;4.90;;
76826;SDS011;65788;52.284;20.890;2023-07-08T02:44:32;8.10;;;5.00;;
76826;SDS011;65788;52.284;20.890;2023-07-08T02:46:59;10.20;;;5.50;;
76826;SDS011;65788;52.284;20.890;2023-07-08T02:49:27;7.90;;;4.90;;
76826;SDS011;65788;52.284;20.890;2023-07-08T02:51:54;8.30;;;4.90;;
76826;SDS011;65788;52.284;20.890;2023-07-08T02:54:21;7.80;;;5.30;;
76826;SDS011;65788;52.284;20.890;2023-07-08T02:56:48;7.80;;;4.90;;
76826;SDS011;65788;52.284;20.890;2023-07-08T02:59:15;7.80;;;4.50;;
76826;SDS011;65788;52.284;20.890;2023-07-08T03:01:42;7.40;;;4.70;;
76826;SDS011;65788;52.284;20.890;2023-07-08T03:04:11;8.70;;;5.00;;
76826;SDS011;65788;52.284;20.890;2023-07-08T03:06:42;8.00;;;5.20;;
76826;SDS011;65788;52.284;20.890;2023-07-08T03:09:13;9.70;;;5.20;;
76826;SDS011;65788;52.284;20.890;2023-07-08T03:11:40;9.20;;;5.00;;
76826;SDS011;65788;52.284;20.890;2023-07-08T03:14:07;6.70;;;4.70;;
76826;SDS011;65788;52.284;20.890;2023-07-08T03:16:34;7.50;;;5.00;;
76826;SDS011;65788;52.284;20.890;2023-07-08T03:19:01;8.40;;;5.20;;
76826;SDS011;65788;52.284;20.890;2023-07-08T03:21:29;6.60;;;4.80;;
76826;SDS011;65788;52.284;20.890;2023-07-08T03:23:57;7.80;;;5.30;;
76826;SDS011;65788;52.284;20.890;2023-07-08T03:26:24;10.20;;;5.00;;
76826;SDS011;65788;52.284;20.890;2023-07-08T03:28:52;7.50;;;5.20;;
76826;SDS011;65788;52.284;20.890;2023-07-08T03:31:20;8.60;;;5.20;;
76826;SDS011;65788;52.284;20.890;2023-07-08T03:33:47;9.60;;;5.00;;
76826;SDS011;65788;52.284;20.890;2023-07-08T03:36:17;9.90;;;5.50;;
76826;SDS011;65788;52.284;20.890;2023-07-08T03:38:53;7.70;;;5.00;;
76826;SDS011;65788;52.284;20.890;2023-07-08T03:41:22;8.30;;;5.60;;
76826;SDS011;65788;52.284;20.890;2023-07-08T03:43:49;6.70;;;4.90;;
76826;SDS011;65788;52.284;20.890;2023-07-08T03:46:18;9.00;;;5.00;;
76826;SDS011;65788;52.284;20.890;2023-07-08T03:48:47;8.90;;;5.40;;
76826;SDS011;65788;52.284;20.890;2023-07-08T03:51:20;9.90;;;5.80;;
76826;SDS011;65788;52.284;20.890;2023-07-08T03:53:49;7.80;;;5.10;;
76826;SDS011;65788;52.284;20.890;2023-07-08T03:56:17;8.90;;;4.90;;
76826;SDS011;65788;52.284;20.890;2023-07-08T03:58:44;7.40;;;5.00;;
76826;SDS011;65788;52.284;20.890;2023-07-08T04:01:15;10.10;;;5.90;;
76826;SDS011;65788;52.284;20.890;2023-07-08T04:03:43;8.30;;;5.30;;
76826;SDS011;65788;52.284;20.890;2023-07-08T04:06:12;10.50;;;5.70;;
76826;SDS011;65788;52.284;20.890;2023-07-08T04:08:39;8.60;;;5.40;;
76826;SDS011;65788;52.284;20.890;2023-07-08T04:11:06;7.30;;;5.40;;
76826;SDS011;65788;52.284;20.890;2023-07-08T04:13:34;9.70;;;5.20;;
76826;SDS011;65788;52.284;20.890;2023-07-08T04:16:02;9.30;;;5.00;;
76826;SDS011;65788;52.284;20.890;2023-07-08T04:18:31;8.60;;;4.90;;
76826;SDS011;65788;52.284;20.890;2023-07-08T04:20:59;10.20;;;5.70;;
76826;SDS011;65788;52.284;20.890;2023-07-08T04:23:25;10.30;;;5.60;;
76826;SDS011;65788;52.284;20.890;2023-07-08T04:25:52;8.40;;;4.90;;
76826;SDS011;65788;52.284;20.890;2023-07-08T04:28:23;9.40;;;4.90;;
76826;SDS011;65788;52.284;20.890;2023-07-08T04:30:50;8.30;;;5.20;;
76826;SDS011;65788;52.284;20.890;2023-07-08T04:33:17;9.70;;;5.30;;
76826;SDS011;65788;52.284;20.890;2023-07-08T04:35:44;7.00;;;4.90;;
76826;SDS011;65788;52.284;20.890;2023-07-08T04:38:19;8.30;;;5.50;;
76826;SDS011;65788;52.284;20.890;2023-07-08T04:40:48;11.00;;;5.70;;
76826;SDS011;65788;52.284;20.890;2023-07-08T04:43:17;8.20;;;5.50;;
76826;SDS011;65788;52.284;20.890;2023-07-08T04:48:17;9.00;;;5.20;;
76826;SDS011;65788;52.284;20.890;2023-07-08T04:50:50;8.30;;;5.20;;
76826;SDS011;65788;52.284;20.890;2023-07-08T04:53:18;7.00;;;5.30;;
76826;SDS011;65788;52.284;20.890;2023-07-08T04:55:51;10.60;;;5.90;;
76826;SDS011;65788;52.284;20.890;2023-07-08T04:58:20;9.60;;;5.70;;
76826;SDS011;65788;52.284;20.890;2023-07-08T05:00:47;8.80;;;5.40;;
76826;SDS011;65788;52.284;20.890;2023-07-08T05:03:14;8.50;;;5.40;;
76826;SDS011;65788;52.284;20.890;2023-07-08T05:05:42;8.70;;;5.20;;
76826;SDS011;65788;52.284;20.890;2023-07-08T05:08:09;11.80;;;6.00;;
76826;SDS011;65788;52.284;20.890;2023-07-08T05:10:36;8.00;;;5.50;;
76826;SDS011;65788;52.284;20.890;2023-07-08T05:13:03;9.80;;;5.60;;
76826;SDS011;65788;52.284;20.890;2023-07-08T05:15:30;7.20;;;5.40;;
76826;SDS011;65788;52.284;20.890;2023-07-08T05:17:57;8.40;;;5.50;;
76826;SDS011;65788;52.284;20.890;2023-07-08T05:20:23;10.40;;;5.80;;
76826;SDS011;65788;52.284;20.890;2023-07-08T05:22:50;8.40;;;5.30;;
76826;SDS011;65788;52.284;20.890;2023-07-08T05:25:18;9.40;;;5.30;;
76826;SDS011;65788;52.284;20.890;2023-07-08T05:27:47;8.40;;;5.40;;
76826;SDS011;65788;52.284;20.890;2023-07-08T05:30:15;9.50;;;5.20;;
76826;SDS011;65788;52.284;20.890;2023-07-08T05:32:44;7.80;;;5.20;;
76826;SDS011;65788;52.284;20.890;2023-07-08T05:35:11;8.90;;;5.60;;
76826;SDS011;65788;52.284;20.890;2023-07-08T05:37:38;9.80;;;5.90;;
76826;SDS011;65788;52.284;20.890;2023-07-08T05:40:09;7.30;;;4.80;;
76826;SDS011;65788;52.284;20.890;2023-07-08T05:42:36;8.60;;;4.90;;
76826;SDS011;65788;52.284;20.890;2023-07-08T05:45:03;7.00;;;4.70;;
76826;SDS011;65788;52.284;20.890;2023-07-08T05:47:33;5.90;;;4.40;;
76826;SDS011;65788;52.284;20.890;2023-07-08T05:50:00;9.40;;;5.30;;
76826;SDS011;65788;52.284;20.890;2023-07-08T05:52:27;9.40;;;5.20;;
76826;SDS011;65788;52.284;20.890;2023-07-08T05:54:54;8.70;;;5.00;;
76826;SDS011;65788;52.284;20.890;2023-07-08T05:57:21;7.40;;;5.00;;
76826;SDS011;65788;52.284;20.890;2023-07-08T05:59:50;8.20;;;5.10;;
76826;SDS011;65788;52.284;20.890;2023-07-08T06:02:17;7.40;;;4.20;;
76826;SDS011;65788;52.284;20.890;2023-07-08T06:04:48;8.30;;;4.90;;
76826;SDS011;65788;52.284;20.890;2023-07-08T06:07:15;8.30;;;4.70;;
76826;SDS011;65788;52.284;20.890;2023-07-08T06:09:43;9.80;;;5.40;;
76826;SDS011;65788;52.284;20.890;2023-07-08T06:12:10;10.10;;;4.60;;
76826;SDS011;65788;52.284;20.890;2023-07-08T06:14:38;7.50;;;4.80;;
76826;SDS011;65788;52.284;20.890;2023-07-08T06:17:05;7.60;;;5.10;;
76826;SDS011;65788;52.284;20.890;2023-07-08T06:19:32;7.70;;;4.60;;
76826;SDS011;65788;52.284;20.890;2023-07-08T06:22:00;7.80;;;5.00;;
76826;SDS011;65788;52.284;20.890;2023-07-08T06:24:27;7.10;;;4.20;;
76826;SDS011;65788;52.284;20.890;2023-07-08T06:26:53;7.40;;;4.50;;
76826;SDS011;65788;52.284;20.890;2023-07-08T06:29:21;7.70;;;4.50;;
76826;SDS011;65788;52.284;20.890;2023-07-08T06:31:48;7.60;;;4.60;;
76826;SDS011;65788;52.284;20.890;2023-07-08T06:34:14;7.20;;;4.70;;
76826;SDS011;65788;52.284;20.890;2023-07-08T06:36:41;6.40;;;4.80;;
76826;SDS011;65788;52.284;20.890;2023-07-08T06:39:08;8.80;;;5.10;;
76826;SDS011;65788;52.284;20.890;2023-07-08T06:41:37;6.60;;;4.40;;
76826;SDS011;65788;52.284;20.890;2023-07-08T06:44:04;9.00;;;4.80;;
76826;SDS011;65788;52.284;20.890;2023-07-08T06:46:31;9.30;;;5.10;;
76826;SDS011;65788;52.284;20.890;2023-07-08T06:48:58;8.20;;;5.40;;
76826;SDS011;65788;52.284;20.890;2023-07-08T06:51:25;8.60;;;4.60;;
76826;SDS011;65788;52.284;20.890;2023-07-08T06:53:55;8.30;;;4.50;;
76826;SDS011;65788;52.284;20.890;2023-07-08T06:56:22;9.90;;;4.50;;
76826;SDS011;65788;52.284;20.890;2023-07-08T06:58:49;6.20;;;3.70;;
76826;SDS011;65788;52.284;20.890;2023-07-08T07:01:15;7.50;;;3.90;;
76826;SDS011;65788;52.284;20.890;2023-07-08T07:03:43;8.60;;;4.40;;
76826;SDS011;65788;52.284;20.890;2023-07-08T07:08:37;5.90;;;3.80;;
76826;SDS011;65788;52.284;20.890;2023-07-08T07:11:04;5.50;;;3.30;;
76826;SDS011;65788;52.284;20.890;2023-07-08T07:13:30;5.60;;;3.50;;
76826;SDS011;65788;52.284;20.890;2023-07-08T07:15:58;11.80;;;3.40;;
76826;SDS011;65788;52.284;20.890;2023-07-08T07:18:25;4.50;;;3.10;;
76826;SDS011;65788;52.284;20.890;2023-07-08T07:20:53;5.50;;;3.30;;
76826;SDS011;65788;52.284;20.890;2023-07-08T07:23:21;6.90;;;3.10;;
76826;SDS011;65788;52.284;20.890;2023-07-08T07:25:48;4.30;;;3.00;;
76826;SDS011;65788;52.284;20.890;2023-07-08T07:28:14;5.70;;;3.10;;
76826;SDS011;65788;52.284;20.890;2023-07-08T07:30:43;5.70;;;3.20;;
76826;SDS011;65788;52.284;20.890;2023-07-08T07:33:11;6.50;;;3.20;;
76826;SDS011;65788;52.284;20.890;2023-07-08T07:35:42;5.20;;;2.80;;
76826;SDS011;65788;52.284;20.890;2023-07-08T07:38:11;4.10;;;2.60;;
76826;SDS011;65788;52.284;20.890;2023-07-08T07:40:39;5.30;;;3.30;;
76826;SDS011;65788;52.284;20.890;2023-07-08T07:43:07;4.50;;;2.80;;
76826;SDS011;65788;52.284;20.890;2023-07-08T07:45:34;4.50;;;2.60;;
76826;SDS011;65788;52.284;20.890;2023-07-08T07:48:02;3.80;;;2.50;;
76826;SDS011;65788;52.284;20.890;2023-07-08T07:50:30;5.10;;;2.90;;
76826;SDS011;65788;52.284;20.890;2023-07-08T07:52:57;4.40;;;2.80;;
76826;SDS011;65788;52.284;20.890;2023-07-08T07:55:24;5.20;;;2.80;;
76826;SDS011;65788;52.284;20.890;2023-07-08T07:57:51;4.90;;;3.00;;
76826;SDS011;65788;52.284;20.890;2023-07-08T08:00:19;4.30;;;2.80;;
76826;SDS011;65788;52.284;20.890;2023-07-08T08:02:46;4.60;;;2.60;;
76826;SDS011;65788;52.284;20.890;2023-07-08T08:05:13;5.30;;;2.80;;
76826;SDS011;65788;52.284;20.890;2023-07-08T08:07:39;5.30;;;2.40;;
76826;SDS011;65788;52.284;20.890;2023-07-08T08:10:07;6.70;;;2.70;;
76826;SDS011;65788;52.284;20.890;2023-07-08T08:12:34;4.90;;;2.30;;
76826;SDS011;65788;52.284;20.890;2023-07-08T08:15:04;4.30;;;2.30;;
76826;SDS011;65788;52.284;20.890;2023-07-08T08:17:31;5.50;;;2.40;;
76826;SDS011;65788;52.284;20.890;2023-07-08T08:20:00;5.60;;;2.30;;
76826;SDS011;65788;52.284;20.890;2023-07-08T08:22:26;4.70;;;2.40;;
76826;SDS011;65788;52.284;20.890;2023-07-08T08:24:54;3.30;;;2.10;;
76826;SDS011;65788;52.284;20.890;2023-07-08T08:27:20;4.40;;;2.50;;
76826;SDS011;65788;52.284;20.890;2023-07-08T08:29:47;3.60;;;2.30;;
76826;SDS011;65788;52.284;20.890;2023-07-08T08:32:14;4.10;;;2.70;;
76826;SDS011;65788;52.284;20.890;2023-07-08T08:34:41;4.30;;;2.10;;
76826;SDS011;65788;52.284;20.890;2023-07-08T08:37:09;4.40;;;2.40;;
76826;SDS011;65788;52.284;20.890;2023-07-08T08:39:36;3.50;;;2.20;;
76826;SDS011;65788;52.284;20.890;2023-07-08T08:42:03;4.40;;;2.30;;
76826;SDS011;65788;52.284;20.890;2023-07-08T08:44:34;3.80;;;2.20;;
76826;SDS011;65788;52.284;20.890;2023-07-08T08:49:50;3.40;;;2.30;;
76826;SDS011;65788;52.284;20.890;2023-07-08T08:52:23;4.20;;;2.40;;
76826;SDS011;65788;52.284;20.890;2023-07-08T08:54:51;5.30;;;2.30;;
76826;SDS011;65788;52.284;20.890;2023-07-08T09:00:18;4.70;;;2.10;;
76826;SDS011;65788;52.284;20.890;2023-07-08T09:03:07;5.50;;;2.20;;
76826;SDS011;65788;52.284;20.890;2023-07-08T09:05:41;3.80;;;2.20;;
76826;SDS011;65788;52.284;20.890;2023-07-08T09:08:13;3.30;;;2.40;;
76826;SDS011;65788;52.284;20.890;2023-07-08T09:13:32;3.50;;;2.10;;
76826;SDS011;65788;52.284;20.890;2023-07-08T09:16:19;4.10;;;2.50;;
76826;SDS011;65788;52.284;20.890;2023-07-08T09:19:01;3.90;;;2.20;;
76826;SDS011;65788;52.284;20.890;2023-07-08T09:21:31;3.90;;;2.20;;
76826;SDS011;65788;52.284;20.890;2023-07-08T09:24:09;3.70;;;2.30;;
76826;SDS011;65788;52.284;20.890;2023-07-08T09:26:51;4.70;;;2.30;;
76826;SDS011;65788;52.284;20.890;2023-07-08T09:29:23;3.30;;;1.90;;
76826;SDS011;65788;52.284;20.890;2023-07-08T09:31:50;3.30;;;2.30;;
76826;SDS011;65788;52.284;20.890;2023-07-08T09:34:20;3.40;;;2.50;;
76826;SDS011;65788;52.284;20.890;2023-07-08T09:36:49;4.20;;;2.20;;
76826;SDS011;65788;52.284;20.890;2023-07-08T09:39:20;3.10;;;2.20;;
76826;SDS011;65788;52.284;20.890;2023-07-08T09:41:48;5.10;;;2.30;;
76826;SDS011;65788;52.284;20.890;2023-07-08T09:44:18;4.10;;;2.10;;
76826;SDS011;65788;52.284;20.890;2023-07-08T09:46:56;2.80;;;1.80;;
76826;SDS011;65788;52.284;20.890;2023-07-08T09:49:32;3.40;;;2.20;;
76826;SDS011;65788;52.284;20.890;2023-07-08T09:52:01;3.60;;;2.00;;
76826;SDS011;65788;52.284;20.890;2023-07-08T09:54:31;4.10;;;2.00;;
76826;SDS011;65788;52.284;20.890;2023-07-08T09:57:21;3.80;;;2.00;;
76826;SDS011;65788;52.284;20.890;2023-07-08T09:59:52;4.10;;;1.80;;
76826;SDS011;65788;52.284;20.890;2023-07-08T10:02:27;4.90;;;2.10;;
76826;SDS011;65788;52.284;20.890;2023-07-08T10:04:57;3.30;;;2.10;;
76826;SDS011;65788;52.284;20.890;2023-07-08T10:07:37;3.90;;;2.30;;
76826;SDS011;65788;52.284;20.890;2023-07-08T10:10:08;3.80;;;2.00;;
76826;SDS011;65788;52.284;20.890;2023-07-08T10:12:41;3.80;;;2.00;;
76826;SDS011;65788;52.284;20.890;2023-07-08T10:16:02;2.90;;;1.90;;
76826;SDS011;65788;52.284;20.890;2023-07-08T10:18:12;3.30;;;2.30;;
76826;SDS011;65788;52.284;20.890;2023-07-08T10:20:52;4.00;;;2.30;;
76826;SDS011;65788;52.284;20.890;2023-07-08T10:23:44;4.20;;;2.30;;
76826;SDS011;65788;52.284;20.890;2023-07-08T10:37:36;3.10;;;1.90;;
76826;SDS011;65788;52.284;20.890;2023-07-08T10:40:20;3.70;;;2.00;;
76826;SDS011;65788;52.284;20.890;2023-07-08T11:06:10;3.50;;;2.10;;
76826;SDS011;65788;52.284;20.890;2023-07-08T11:08:44;3.70;;;2.30;;
76826;SDS011;65788;52.284;20.890;2023-07-08T11:14:41;5.10;;;2.30;;
76826;SDS011;65788;52.284;20.890;2023-07-08T11:22:28;3.60;;;2.50;;
76826;SDS011;65788;52.284;20.890;2023-07-08T11:24:58;5.00;;;2.40;;
76826;SDS011;65788;52.284;20.890;2023-07-08T11:32:38;4.70;;;2.50;;
76826;SDS011;65788;52.284;20.890;2023-07-08T11:35:07;6.10;;;2.70;;
76826;SDS011;65788;52.284;20.890;2023-07-08T11:37:47;3.60;;;2.30;;
76826;SDS011;65788;52.284;20.890;2023-07-08T11:40:19;3.30;;;2.00;;
76826;SDS011;65788;52.284;20.890;2023-07-08T11:42:52;3.30;;;2.10;;
76826;SDS011;65788;52.284;20.890;2023-07-08T11:47:53;3.70;;;2.20;;
76826;SDS011;65788;52.284;20.890;2023-07-08T11:50:30;4.20;;;2.10;;
76826;SDS011;65788;52.284;20.890;2023-07-08T11:55:55;4.80;;;2.50;;
76826;SDS011;65788;52.284;20.890;2023-07-08T11:58:31;3.60;;;2.10;;
76826;SDS011;65788;52.284;20.890;2023-07-08T12:03:48;3.50;;;2.10;;
76826;SDS011;65788;52.284;20.890;2023-07-08T12:08:56;9.40;;;2.70;;
76826;SDS011;65788;52.284;20.890;2023-07-08T12:11:26;5.10;;;2.60;;
76826;SDS011;65788;52.284;20.890;2023-07-08T12:14:04;6.50;;;3.10;;
76826;SDS011;65788;52.284;20.890;2023-07-08T12:16:31;7.10;;;2.30;;
76826;SDS011;65788;52.284;20.890;2023-07-08T12:18:59;4.30;;;2.50;;
76826;SDS011;65788;52.284;20.890;2023-07-08T12:21:28;4.00;;;2.40;;
76826;SDS011;65788;52.284;20.890;2023-07-08T12:23:55;4.10;;;2.40;;
76826;SDS011;65788;52.284;20.890;2023-07-08T12:26:21;4.70;;;2.70;;
76826;SDS011;65788;52.284;20.890;2023-07-08T12:28:51;3.80;;;2.60;;
76826;SDS011;65788;52.284;20.890;2023-07-08T12:31:18;4.00;;;2.80;;
76826;SDS011;65788;52.284;20.890;2023-07-08T12:33:47;5.20;;;2.80;;
76826;SDS011;65788;52.284;20.890;2023-07-08T12:36:21;4.40;;;2.50;;
76826;SDS011;65788;52.284;20.890;2023-07-08T12:38:54;4.60;;;2.10;;
76826;SDS011;65788;52.284;20.890;2023-07-08T12:41:25;5.10;;;3.00;;
76826;SDS011;65788;52.284;20.890;2023-07-08T12:43:56;3.40;;;2.50;;
76826;SDS011;65788;52.284;20.890;2023-07-08T12:46:23;3.90;;;2.80;;
76826;SDS011;65788;52.284;20.890;2023-07-08T12:48:51;5.40;;;2.60;;
76826;SDS011;65788;52.284;20.890;2023-07-08T12:51:19;6.20;;;3.00;;
76826;SDS011;65788;52.284;20.890;2023-07-08T12:53:48;5.50;;;2.70;;
76826;SDS011;65788;52.284;20.890;2023-07-08T12:56:16;4.30;;;2.70;;
76826;SDS011;65788;52.284;20.890;2023-07-08T13:01:16;3.80;;;2.50;;
76826;SDS011;65788;52.284;20.890;2023-07-08T13:03:47;5.00;;;3.10;;
76826;SDS011;65788;52.284;20.890;2023-07-08T13:06:17;3.30;;;2.50;;
76826;SDS011;65788;52.284;20.890;2023-07-08T13:08:46;4.80;;;3.10;;
76826;SDS011;65788;52.284;20.890;2023-07-08T13:11:15;4.50;;;2.50;;
76826;SDS011;65788;52.284;20.890;2023-07-08T13:13:52;5.10;;;2.70;;
76826;SDS011;65788;52.284;20.890;2023-07-08T13:16:22;4.60;;;2.90;;
76826;SDS011;65788;52.284;20.890;2023-07-08T13:18:50;4.20;;;2.70;;
76826;SDS011;65788;52.284;20.890;2023-07-08T13:21:17;4.50;;;2.60;;
76826;SDS011;65788;52.284;20.890;2023-07-08T13:23:44;5.00;;;2.80;;
76826;SDS011;65788;52.284;20.890;2023-07-08T13:26:16;4.20;;;2.90;;
76826;SDS011;65788;52.284;20.890;2023-07-08T13:28:45;3.80;;;2.70;;
76826;SDS011;65788;52.284;20.890;2023-07-08T13:31:20;4.50;;;3.00;;
76826;SDS011;65788;52.284;20.890;2023-07-08T13:33:50;4.80;;;3.00;;
76826;SDS011;65788;52.284;20.890;2023-07-08T13:36:30;7.40;;;3.00;;
76826;SDS011;65788;52.284;20.890;2023-07-08T13:39:01;4.80;;;2.60;;
76826;SDS011;65788;52.284;20.890;2023-07-08T13:41:31;5.20;;;2.30;;
76826;SDS011;65788;52.284;20.890;2023-07-08T13:44:03;6.40;;;2.80;;
76826;SDS011;65788;52.284;20.890;2023-07-08T13:49:24;4.40;;;2.70;;
76826;SDS011;65788;52.284;20.890;2023-07-08T13:54:52;4.50;;;2.80;;
76826;SDS011;65788;52.284;20.890;2023-07-08T13:57:28;4.40;;;2.80;;
76826;SDS011;65788;52.284;20.890;2023-07-08T13:59:58;4.20;;;2.70;;
76826;SDS011;65788;52.284;20.890;2023-07-08T14:02:26;4.60;;;2.70;;
76826;SDS011;65788;52.284;20.890;2023-07-08T14:04:56;4.20;;;2.50;;
76826;SDS011;65788;52.284;20.890;2023-07-08T14:07:26;5.00;;;3.00;;
76826;SDS011;65788;52.284;20.890;2023-07-08T14:09:56;4.10;;;2.60;;
76826;SDS011;65788;52.284;20.890;2023-07-08T14:12:23;4.00;;;2.60;;
76826;SDS011;65788;52.284;20.890;2023-07-08T14:14:50;3.30;;;2.50;;
76826;SDS011;65788;52.284;20.890;2023-07-08T14:17:21;4.30;;;2.50;;
76826;SDS011;65788;52.284;20.890;2023-07-08T14:19:50;4.60;;;2.90;;
76826;SDS011;65788;52.284;20.890;2023-07-08T14:22:24;3.40;;;2.50;;
76826;SDS011;65788;52.284;20.890;2023-07-08T14:24:53;3.40;;;2.40;;
76826;SDS011;65788;52.284;20.890;2023-07-08T14:27:21;4.10;;;2.40;;
76826;SDS011;65788;52.284;20.890;2023-07-08T14:29:49;4.20;;;2.30;;
76826;SDS011;65788;52.284;20.890;2023-07-08T14:32:35;5.00;;;2.50;;
76826;SDS011;65788;52.284;20.890;2023-07-08T14:37:44;4.10;;;2.60;;
76826;SDS011;65788;52.284;20.890;2023-07-08T14:42:59;4.20;;;2.60;;
76826;SDS011;65788;52.284;20.890;2023-07-08T14:45:28;3.60;;;2.40;;
76826;SDS011;65788;52.284;20.890;2023-07-08T14:48:01;4.00;;;2.60;;
76826;SDS011;65788;52.284;20.890;2023-07-08T14:50:28;3.80;;;2.60;;
76826;SDS011;65788;52.284;20.890;2023-07-08T14:52:56;3.30;;;2.30;;
76826;SDS011;65788;52.284;20.890;2023-07-08T14:55:23;4.20;;;2.40;;
76826;SDS011;65788;52.284;20.890;2023-07-08T14:57:51;3.60;;;2.30;;
76826;SDS011;65788;52.284;20.890;2023-07-08T15:00:18;5.90;;;2.60;;
76826;SDS011;65788;52.284;20.890;2023-07-08T15:02:46;4.20;;;2.40;;
76826;SDS011;65788;52.284;20.890;2023-07-08T15:05:15;3.60;;;2.40;;
76826;SDS011;65788;52.284;20.890;2023-07-08T15:07:42;5.30;;;2.90;;
76826;SDS011;65788;52.284;20.890;2023-07-08T15:10:10;5.50;;;2.70;;
76826;SDS011;65788;52.284;20.890;2023-07-08T15:12:37;3.50;;;2.30;;
76826;SDS011;65788;52.284;20.890;2023-07-08T15:15:13;3.60;;;2.30;;
76826;SDS011;65788;52.284;20.890;2023-07-08T15:17:42;3.60;;;2.40;;
76826;SDS011;65788;52.284;20.890;2023-07-08T15:20:10;2.90;;;2.10;;
76826;SDS011;65788;52.284;20.890;2023-07-08T15:22:42;4.10;;;2.70;;
76826;SDS011;65788;52.284;20.890;2023-07-08T15:25:10;4.70;;;2.40;;
76826;SDS011;65788;52.284;20.890;2023-07-08T15:27:40;3.60;;;2.30;;
76826;SDS011;65788;52.284;20.890;2023-07-08T15:30:14;5.10;;;2.70;;
76826;SDS011;65788;52.284;20.890;2023-07-08T15:32:43;3.90;;;2.80;;
76826;SDS011;65788;52.284;20.890;2023-07-08T15:35:12;3.70;;;2.60;;
76826;SDS011;65788;52.284;20.890;2023-07-08T15:37:44;4.30;;;2.50;;
76826;SDS011;65788;52.284;20.890;2023-07-08T15:40:16;5.40;;;2.80;;
76826;SDS011;65788;52.284;20.890;2023-07-08T15:42:45;3.30;;;2.30;;
76826;SDS011;65788;52.284;20.890;2023-07-08T15:47:48;7.90;;;3.10;;
76826;SDS011;65788;52.284;20.890;2023-07-08T15:50:16;7.80;;;3.10;;
76826;SDS011;65788;52.284;20.890;2023-07-08T15:52:46;7.20;;;3.30;;
76826;SDS011;65788;52.284;20.890;2023-07-08T15:55:13;6.10;;;3.20;;
76826;SDS011;65788;52.284;20.890;2023-07-08T15:57:47;6.10;;;3.20;;
76826;SDS011;65788;52.284;20.890;2023-07-08T16:00:20;7.00;;;2.90;;
76826;SDS011;65788;52.284;20.890;2023-07-08T16:02:51;4.50;;;3.10;;
76826;SDS011;65788;52.284;20.890;2023-07-08T16:05:22;5.60;;;2.70;;
76826;SDS011;65788;52.284;20.890;2023-07-08T16:07:51;6.10;;;3.50;;
76826;SDS011;65788;52.284;20.890;2023-07-08T16:10:22;5.00;;;2.50;;
76826;SDS011;65788;52.284;20.890;2023-07-08T16:12:51;5.80;;;3.00;;
76826;SDS011;65788;52.284;20.890;2023-07-08T16:15:26;3.70;;;2.50;;
76826;SDS011;65788;52.284;20.890;2023-07-08T16:17:56;5.00;;;2.60;;
76826;SDS011;65788;52.284;20.890;2023-07-08T16:20:24;5.00;;;2.70;;
76826;SDS011;65788;52.284;20.890;2023-07-08T16:22:52;5.40;;;2.90;;
76826;SDS011;65788;52.284;20.890;2023-07-08T16:25:21;5.20;;;3.00;;
76826;SDS011;65788;52.284;20.890;2023-07-08T16:27:54;5.60;;;3.00;;
76826;SDS011;65788;52.284;20.890;2023-07-08T16:30:23;4.50;;;2.70;;
76826;SDS011;65788;52.284;20.890;2023-07-08T16:32:49;4.20;;;2.80;;
76826;SDS011;65788;52.284;20.890;2023-07-08T16:35:17;3.70;;;2.60;;